sensor_id;sensor_type;location;lat;lon;timestamp;P1;durP1;ratioP1;P2;durP2;ratioP2
56201;SDS011;42117;50.360;3.508;2023-02-28T00:00:01;6.45;;;4.25;;
56201;SDS011;42117;50.360;3.508;2023-02-28T00:02:33;7.75;;;4.30;;
56201;SDS011;42117;50.360;3.508;2023-02-28T00:04:59;7.50;;;4.72;;
56201;SDS011;42117;50.360;3.508;2023-02-28T00:07:26;7.45;;;4.78;;
56201;SDS011;42117;50.360;3.508;2023-02-28T00:09:53;10.15;;;5.28;;
56201;SDS011;42117;50.360;3.508;2023-02-28T00:12:19;7.60;;;4.40;;
56201;SDS011;42117;50.360;3.508;2023-02-28T00:14:45;9.50;;;5.78;;
56201;SDS011;42117;50.360;3.508;2023-02-28T00:17:11;8.90;;;5.63;;
56201;SDS011;42117;50.360;3.508;2023-02-28T00:19:37;6.45;;;4.45;;
56201;SDS011;42117;50.360;3.508;2023-02-28T00:22:03;6.30;;;4.32;;
56201;SDS011;42117;50.360;3.508;2023-02-28T00:24:29;8.10;;;4.53;;
56201;SDS011;42117;50.360;3.508;2023-02-28T00:26:55;8.13;;;4.70;;
56201;SDS011;42117;50.360;3.508;2023-02-28T00:29:21;8.80;;;4.25;;
56201;SDS011;42117;50.360;3.508;2023-02-28T00:31:47;9.45;;;4.20;;
56201;SDS011;42117;50.360;3.508;2023-02-28T00:34:13;7.95;;;4.53;;
56201;SDS011;42117;50.360;3.508;2023-02-28T00:36:39;8.82;;;4.10;;
56201;SDS011;42117;50.360;3.508;2023-02-28T00:39:08;5.03;;;4.03;;
56201;SDS011;42117;50.360;3.508;2023-02-28T00:41:34;6.78;;;4.05;;
56201;SDS011;42117;50.360;3.508;2023-02-28T00:44:00;6.47;;;4.53;;
56201;SDS011;42117;50.360;3.508;2023-02-28T00:46:26;9.32;;;4.68;;
56201;SDS011;42117;50.360;3.508;2023-02-28T00:48:52;8.02;;;4.72;;
56201;SDS011;42117;50.360;3.508;2023-02-28T00:51:18;8.50;;;4.82;;
56201;SDS011;42117;50.360;3.508;2023-02-28T00:53:44;8.68;;;4.65;;
56201;SDS011;42117;50.360;3.508;2023-02-28T00:56:10;8.00;;;5.40;;
56201;SDS011;42117;50.360;3.508;2023-02-28T00:58:36;12.70;;;5.50;;
56201;SDS011;42117;50.360;3.508;2023-02-28T01:01:02;8.48;;;5.20;;
56201;SDS011;42117;50.360;3.508;2023-02-28T01:03:28;6.20;;;4.63;;
56201;SDS011;42117;50.360;3.508;2023-02-28T01:05:54;8.13;;;5.47;;
56201;SDS011;42117;50.360;3.508;2023-02-28T01:08:21;12.45;;;5.60;;
56201;SDS011;42117;50.360;3.508;2023-02-28T01:10:47;11.55;;;4.80;;
56201;SDS011;42117;50.360;3.508;2023-02-28T01:13:13;8.15;;;4.88;;
56201;SDS011;42117;50.360;3.508;2023-02-28T01:15:48;10.00;;;4.68;;
56201;SDS011;42117;50.360;3.508;2023-02-28T01:18:15;6.55;;;4.70;;
56201;SDS011;42117;50.360;3.508;2023-02-28T01:20:41;9.95;;;5.22;;
56201;SDS011;42117;50.360;3.508;2023-02-28T01:23:08;8.20;;;4.65;;
56201;SDS011;42117;50.360;3.508;2023-02-28T01:25:35;9.32;;;4.35;;
56201;SDS011;42117;50.360;3.508;2023-02-28T01:28:01;6.32;;;4.53;;
56201;SDS011;42117;50.360;3.508;2023-02-28T01:30:27;8.52;;;4.40;;
56201;SDS011;42117;50.360;3.508;2023-02-28T01:32:53;6.72;;;4.88;;
56201;SDS011;42117;50.360;3.508;2023-02-28T01:35:19;6.65;;;4.35;;
56201;SDS011;42117;50.360;3.508;2023-02-28T01:37:45;8.77;;;4.22;;
56201;SDS011;42117;50.360;3.508;2023-02-28T01:40:12;9.63;;;4.80;;
56201;SDS011;42117;50.360;3.508;2023-02-28T01:42:38;7.27;;;4.53;;
56201;SDS011;42117;50.360;3.508;2023-02-28T01:45:06;9.23;;;5.15;;
56201;SDS011;42117;50.360;3.508;2023-02-28T01:47:38;5.22;;;4.10;;
56201;SDS011;42117;50.360;3.508;2023-02-28T01:50:06;7.63;;;4.90;;
56201;SDS011;42117;50.360;3.508;2023-02-28T01:52:33;7.57;;;4.70;;
56201;SDS011;42117;50.360;3.508;2023-02-28T01:55:00;5.22;;;4.30;;
56201;SDS011;42117;50.360;3.508;2023-02-28T01:57:32;9.52;;;4.85;;
56201;SDS011;42117;50.360;3.508;2023-02-28T02:00:12;8.07;;;4.40;;
56201;SDS011;42117;50.360;3.508;2023-02-28T02:02:40;5.57;;;4.43;;
56201;SDS011;42117;50.360;3.508;2023-02-28T02:05:08;6.53;;;4.65;;
56201;SDS011;42117;50.360;3.508;2023-02-28T02:07:35;6.18;;;4.68;;
56201;SDS011;42117;50.360;3.508;2023-02-28T02:10:10;8.93;;;5.43;;
56201;SDS011;42117;50.360;3.508;2023-02-28T02:15:24;9.00;;;5.20;;
56201;SDS011;42117;50.360;3.508;2023-02-28T02:17:52;8.50;;;5.10;;
56201;SDS011;42117;50.360;3.508;2023-02-28T02:25:56;7.33;;;4.67;;
56201;SDS011;42117;50.360;3.508;2023-02-28T02:31:06;7.43;;;4.90;;
56201;SDS011;42117;50.360;3.508;2023-02-28T02:36:23;10.18;;;4.90;;
56201;SDS011;42117;50.360;3.508;2023-02-28T02:38:52;8.50;;;4.95;;
56201;SDS011;42117;50.360;3.508;2023-02-28T02:43:49;5.32;;;4.80;;
56201;SDS011;42117;50.360;3.508;2023-02-28T02:48:45;8.82;;;5.10;;
56201;SDS011;42117;50.360;3.508;2023-02-28T02:51:13;7.10;;;4.95;;
56201;SDS011;42117;50.360;3.508;2023-02-28T02:53:59;7.38;;;5.15;;
56201;SDS011;42117;50.360;3.508;2023-02-28T02:56:27;7.72;;;5.20;;
56201;SDS011;42117;50.360;3.508;2023-02-28T02:58:54;9.15;;;5.30;;
56201;SDS011;42117;50.360;3.508;2023-02-28T03:01:23;8.85;;;4.90;;
56201;SDS011;42117;50.360;3.508;2023-02-28T03:03:55;7.72;;;5.10;;
56201;SDS011;42117;50.360;3.508;2023-02-28T03:06:21;7.80;;;4.72;;
56201;SDS011;42117;50.360;3.508;2023-02-28T03:08:47;10.43;;;5.10;;
56201;SDS011;42117;50.360;3.508;2023-02-28T03:11:14;7.95;;;5.20;;
56201;SDS011;42117;50.360;3.508;2023-02-28T03:19:05;9.68;;;4.97;;
56201;SDS011;42117;50.360;3.508;2023-02-28T03:24:02;6.43;;;4.90;;
56201;SDS011;42117;50.360;3.508;2023-02-28T03:26:30;9.27;;;5.22;;
56201;SDS011;42117;50.360;3.508;2023-02-28T03:29:09;8.23;;;4.80;;
56201;SDS011;42117;50.360;3.508;2023-02-28T03:31:44;7.35;;;5.25;;
56201;SDS011;42117;50.360;3.508;2023-02-28T03:34:12;9.43;;;5.50;;
56201;SDS011;42117;50.360;3.508;2023-02-28T03:36:41;8.02;;;5.32;;
56201;SDS011;42117;50.360;3.508;2023-02-28T03:39:11;9.27;;;5.15;;
56201;SDS011;42117;50.360;3.508;2023-02-28T03:41:42;12.32;;;5.05;;
56201;SDS011;42117;50.360;3.508;2023-02-28T03:44:13;8.48;;;5.32;;
56201;SDS011;42117;50.360;3.508;2023-02-28T03:46:44;11.52;;;6.22;;
56201;SDS011;42117;50.360;3.508;2023-02-28T03:49:14;8.40;;;5.45;;
56201;SDS011;42117;50.360;3.508;2023-02-28T03:51:42;7.78;;;4.90;;
56201;SDS011;42117;50.360;3.508;2023-02-28T03:54:12;6.38;;;4.38;;
56201;SDS011;42117;50.360;3.508;2023-02-28T03:56:43;7.18;;;5.47;;
56201;SDS011;42117;50.360;3.508;2023-02-28T03:59:15;6.68;;;4.80;;
56201;SDS011;42117;50.360;3.508;2023-02-28T04:01:44;8.77;;;5.53;;
56201;SDS011;42117;50.360;3.508;2023-02-28T04:04:10;12.00;;;5.63;;
56201;SDS011;42117;50.360;3.508;2023-02-28T04:06:37;7.50;;;5.00;;
56201;SDS011;42117;50.360;3.508;2023-02-28T04:09:05;7.97;;;4.88;;
56201;SDS011;42117;50.360;3.508;2023-02-28T04:11:33;9.07;;;5.13;;
56201;SDS011;42117;50.360;3.508;2023-02-28T04:14:00;8.50;;;5.32;;
56201;SDS011;42117;50.360;3.508;2023-02-28T04:16:27;10.50;;;5.03;;
56201;SDS011;42117;50.360;3.508;2023-02-28T04:18:53;16.83;;;5.50;;
56201;SDS011;42117;50.360;3.508;2023-02-28T04:21:19;12.07;;;5.47;;
56201;SDS011;42117;50.360;3.508;2023-02-28T04:23:47;11.68;;;6.30;;
56201;SDS011;42117;50.360;3.508;2023-02-28T04:26:13;11.10;;;6.28;;
56201;SDS011;42117;50.360;3.508;2023-02-28T04:28:39;9.75;;;7.15;;
56201;SDS011;42117;50.360;3.508;2023-02-28T04:31:05;8.18;;;5.40;;
56201;SDS011;42117;50.360;3.508;2023-02-28T04:33:32;7.80;;;4.93;;
56201;SDS011;42117;50.360;3.508;2023-02-28T04:36:05;10.02;;;5.85;;
56201;SDS011;42117;50.360;3.508;2023-02-28T04:38:32;10.20;;;5.28;;
56201;SDS011;42117;50.360;3.508;2023-02-28T04:40:59;9.90;;;6.50;;
56201;SDS011;42117;50.360;3.508;2023-02-28T04:43:26;8.15;;;5.57;;
56201;SDS011;42117;50.360;3.508;2023-02-28T04:45:52;8.52;;;5.78;;
56201;SDS011;42117;50.360;3.508;2023-02-28T04:48:21;11.00;;;5.67;;
56201;SDS011;42117;50.360;3.508;2023-02-28T04:50:47;6.65;;;5.30;;
56201;SDS011;42117;50.360;3.508;2023-02-28T04:53:13;12.63;;;5.85;;
56201;SDS011;42117;50.360;3.508;2023-02-28T04:55:39;10.67;;;5.30;;
56201;SDS011;42117;50.360;3.508;2023-02-28T04:58:05;10.90;;;5.75;;
56201;SDS011;42117;50.360;3.508;2023-02-28T05:00:31;11.00;;;5.70;;
56201;SDS011;42117;50.360;3.508;2023-02-28T05:02:57;9.68;;;5.65;;
56201;SDS011;42117;50.360;3.508;2023-02-28T05:05:23;11.75;;;6.57;;
56201;SDS011;42117;50.360;3.508;2023-02-28T05:07:49;12.00;;;6.00;;
56201;SDS011;42117;50.360;3.508;2023-02-28T05:10:15;7.85;;;5.38;;
56201;SDS011;42117;50.360;3.508;2023-02-28T05:12:41;9.63;;;5.68;;
56201;SDS011;42117;50.360;3.508;2023-02-28T05:15:09;9.30;;;5.95;;
56201;SDS011;42117;50.360;3.508;2023-02-28T05:17:38;8.77;;;6.63;;
56201;SDS011;42117;50.360;3.508;2023-02-28T05:20:04;7.40;;;5.63;;
56201;SDS011;42117;50.360;3.508;2023-02-28T05:22:30;11.70;;;5.88;;
56201;SDS011;42117;50.360;3.508;2023-02-28T05:24:57;9.35;;;5.82;;
56201;SDS011;42117;50.360;3.508;2023-02-28T05:27:23;14.13;;;5.90;;
56201;SDS011;42117;50.360;3.508;2023-02-28T05:29:49;9.63;;;5.70;;
56201;SDS011;42117;50.360;3.508;2023-02-28T05:32:15;9.70;;;6.28;;
56201;SDS011;42117;50.360;3.508;2023-02-28T05:34:41;8.88;;;6.30;;
56201;SDS011;42117;50.360;3.508;2023-02-28T05:37:11;11.55;;;6.22;;
56201;SDS011;42117;50.360;3.508;2023-02-28T05:39:38;7.90;;;5.70;;
56201;SDS011;42117;50.360;3.508;2023-02-28T05:42:04;8.35;;;5.70;;
56201;SDS011;42117;50.360;3.508;2023-02-28T05:44:31;11.90;;;6.37;;
56201;SDS011;42117;50.360;3.508;2023-02-28T05:46:57;11.95;;;5.90;;
56201;SDS011;42117;50.360;3.508;2023-02-28T05:49:23;10.50;;;6.07;;
56201;SDS011;42117;50.360;3.508;2023-02-28T05:51:49;9.75;;;6.43;;
56201;SDS011;42117;50.360;3.508;2023-02-28T05:54:15;8.75;;;6.00;;
56201;SDS011;42117;50.360;3.508;2023-02-28T05:56:41;7.37;;;5.87;;
56201;SDS011;42117;50.360;3.508;2023-02-28T05:59:10;16.92;;;6.95;;
56201;SDS011;42117;50.360;3.508;2023-02-28T06:01:38;12.30;;;6.20;;
56201;SDS011;42117;50.360;3.508;2023-02-28T06:04:06;9.88;;;6.22;;
56201;SDS011;42117;50.360;3.508;2023-02-28T06:06:32;13.07;;;6.95;;
56201;SDS011;42117;50.360;3.508;2023-02-28T06:09:02;13.43;;;6.80;;
56201;SDS011;42117;50.360;3.508;2023-02-28T06:11:28;11.85;;;6.68;;
56201;SDS011;42117;50.360;3.508;2023-02-28T06:13:55;10.90;;;7.10;;
56201;SDS011;42117;50.360;3.508;2023-02-28T06:16:21;12.52;;;7.18;;
56201;SDS011;42117;50.360;3.508;2023-02-28T06:18:47;9.63;;;6.20;;
56201;SDS011;42117;50.360;3.508;2023-02-28T06:21:13;11.30;;;6.80;;
56201;SDS011;42117;50.360;3.508;2023-02-28T06:23:39;14.07;;;7.20;;
56201;SDS011;42117;50.360;3.508;2023-02-28T06:26:05;13.63;;;7.00;;
56201;SDS011;42117;50.360;3.508;2023-02-28T06:28:31;16.50;;;8.30;;
56201;SDS011;42117;50.360;3.508;2023-02-28T06:30:57;16.25;;;7.93;;
56201;SDS011;42117;50.360;3.508;2023-02-28T06:33:23;12.35;;;6.95;;
56201;SDS011;42117;50.360;3.508;2023-02-28T06:35:50;17.40;;;6.93;;
56201;SDS011;42117;50.360;3.508;2023-02-28T06:38:16;13.88;;;6.82;;
56201;SDS011;42117;50.360;3.508;2023-02-28T06:40:43;11.43;;;7.13;;
56201;SDS011;42117;50.360;3.508;2023-02-28T06:43:09;15.25;;;6.82;;
56201;SDS011;42117;50.360;3.508;2023-02-28T06:45:40;10.02;;;6.65;;
56201;SDS011;42117;50.360;3.508;2023-02-28T06:48:06;10.90;;;7.00;;
56201;SDS011;42117;50.360;3.508;2023-02-28T06:50:32;12.75;;;7.20;;
56201;SDS011;42117;50.360;3.508;2023-02-28T06:52:59;11.70;;;7.03;;
56201;SDS011;42117;50.360;3.508;2023-02-28T06:55:25;12.70;;;7.30;;
56201;SDS011;42117;50.360;3.508;2023-02-28T06:57:51;14.48;;;8.80;;
56201;SDS011;42117;50.360;3.508;2023-02-28T07:00:17;13.57;;;7.20;;
56201;SDS011;42117;50.360;3.508;2023-02-28T07:02:43;11.95;;;6.63;;
56201;SDS011;42117;50.360;3.508;2023-02-28T07:05:09;12.20;;;7.53;;
56201;SDS011;42117;50.360;3.508;2023-02-28T07:07:35;12.15;;;7.10;;
56201;SDS011;42117;50.360;3.508;2023-02-28T07:10:03;14.48;;;7.15;;
56201;SDS011;42117;50.360;3.508;2023-02-28T07:12:29;14.07;;;7.00;;
56201;SDS011;42117;50.360;3.508;2023-02-28T07:14:55;14.40;;;7.00;;
56201;SDS011;42117;50.360;3.508;2023-02-28T07:17:21;14.40;;;7.75;;
56201;SDS011;42117;50.360;3.508;2023-02-28T07:19:47;13.60;;;7.10;;
56201;SDS011;42117;50.360;3.508;2023-02-28T07:22:13;15.73;;;7.57;;
56201;SDS011;42117;50.360;3.508;2023-02-28T07:24:39;16.43;;;7.60;;
56201;SDS011;42117;50.360;3.508;2023-02-28T07:27:05;13.35;;;7.20;;
56201;SDS011;42117;50.360;3.508;2023-02-28T07:29:31;13.15;;;7.75;;
56201;SDS011;42117;50.360;3.508;2023-02-28T07:31:57;15.15;;;7.57;;
56201;SDS011;42117;50.360;3.508;2023-02-28T07:34:23;19.15;;;7.95;;
56201;SDS011;42117;50.360;3.508;2023-02-28T07:36:52;15.80;;;8.50;;
56201;SDS011;42117;50.360;3.508;2023-02-28T07:39:18;18.55;;;8.20;;
56201;SDS011;42117;50.360;3.508;2023-02-28T07:41:45;19.02;;;9.60;;
56201;SDS011;42117;50.360;3.508;2023-02-28T07:44:11;18.15;;;8.50;;
56201;SDS011;42117;50.360;3.508;2023-02-28T07:46:37;14.65;;;7.07;;
56201;SDS011;42117;50.360;3.508;2023-02-28T07:49:04;14.07;;;7.38;;
56201;SDS011;42117;50.360;3.508;2023-02-28T07:51:30;15.48;;;7.90;;
56201;SDS011;42117;50.360;3.508;2023-02-28T07:53:56;10.55;;;7.15;;
56201;SDS011;42117;50.360;3.508;2023-02-28T07:56:22;11.85;;;7.03;;
56201;SDS011;42117;50.360;3.508;2023-02-28T07:58:48;12.65;;;7.50;;
56201;SDS011;42117;50.360;3.508;2023-02-28T08:01:14;9.38;;;6.20;;
56201;SDS011;42117;50.360;3.508;2023-02-28T08:03:40;11.50;;;6.60;;
56201;SDS011;42117;50.360;3.508;2023-02-28T08:06:07;11.57;;;6.30;;
56201;SDS011;42117;50.360;3.508;2023-02-28T08:08:34;11.45;;;7.05;;
56201;SDS011;42117;50.360;3.508;2023-02-28T08:11:00;10.57;;;6.07;;
56201;SDS011;42117;50.360;3.508;2023-02-28T08:13:27;15.13;;;5.28;;
56201;SDS011;42117;50.360;3.508;2023-02-28T08:15:54;18.50;;;5.70;;
56201;SDS011;42117;50.360;3.508;2023-02-28T08:18:20;11.48;;;6.20;;
56201;SDS011;42117;50.360;3.508;2023-02-28T08:20:46;14.45;;;6.07;;
56201;SDS011;42117;50.360;3.508;2023-02-28T08:23:12;11.48;;;5.68;;
56201;SDS011;42117;50.360;3.508;2023-02-28T08:25:38;9.38;;;5.63;;
56201;SDS011;42117;50.360;3.508;2023-02-28T08:28:04;8.47;;;5.67;;
56201;SDS011;42117;50.360;3.508;2023-02-28T08:30:30;7.53;;;5.28;;
56201;SDS011;42117;50.360;3.508;2023-02-28T08:32:56;9.82;;;5.28;;
56201;SDS011;42117;50.360;3.508;2023-02-28T08:35:23;7.22;;;4.70;;
56201;SDS011;42117;50.360;3.508;2023-02-28T08:37:49;10.35;;;5.20;;
56201;SDS011;42117;50.360;3.508;2023-02-28T08:40:15;8.40;;;5.38;;
56201;SDS011;42117;50.360;3.508;2023-02-28T08:42:44;7.20;;;4.70;;
56201;SDS011;42117;50.360;3.508;2023-02-28T08:45:10;13.30;;;5.70;;
56201;SDS011;42117;50.360;3.508;2023-02-28T08:47:37;13.90;;;5.20;;
56201;SDS011;42117;50.360;3.508;2023-02-28T08:50:03;9.00;;;4.40;;
56201;SDS011;42117;50.360;3.508;2023-02-28T08:52:29;7.15;;;4.38;;
56201;SDS011;42117;50.360;3.508;2023-02-28T08:54:55;9.55;;;5.18;;
56201;SDS011;42117;50.360;3.508;2023-02-28T08:57:21;7.93;;;4.47;;
56201;SDS011;42117;50.360;3.508;2023-02-28T08:59:47;7.97;;;4.83;;
56201;SDS011;42117;50.360;3.508;2023-02-28T09:02:14;13.60;;;4.90;;
56201;SDS011;42117;50.360;3.508;2023-02-28T09:04:40;7.07;;;4.10;;
56201;SDS011;42117;50.360;3.508;2023-02-28T09:07:07;6.07;;;3.90;;
56201;SDS011;42117;50.360;3.508;2023-02-28T09:09:33;8.93;;;4.10;;
56201;SDS011;42117;50.360;3.508;2023-02-28T09:11:59;6.43;;;4.10;;
56201;SDS011;42117;50.360;3.508;2023-02-28T09:14:25;5.47;;;4.03;;
56201;SDS011;42117;50.360;3.508;2023-02-28T09:16:51;7.45;;;4.57;;
56201;SDS011;42117;50.360;3.508;2023-02-28T09:19:17;5.63;;;4.10;;
56201;SDS011;42117;50.360;3.508;2023-02-28T09:21:43;7.13;;;3.80;;
56201;SDS011;42117;50.360;3.508;2023-02-28T09:24:09;5.78;;;4.00;;
56201;SDS011;42117;50.360;3.508;2023-02-28T09:26:38;5.68;;;3.30;;
56201;SDS011;42117;50.360;3.508;2023-02-28T09:29:04;7.33;;;3.53;;
56201;SDS011;42117;50.360;3.508;2023-02-28T09:31:30;7.97;;;3.67;;
56201;SDS011;42117;50.360;3.508;2023-02-28T09:33:56;10.65;;;3.40;;
56201;SDS011;42117;50.360;3.508;2023-02-28T09:36:24;8.32;;;3.35;;
56201;SDS011;42117;50.360;3.508;2023-02-28T09:38:50;4.07;;;3.13;;
56201;SDS011;42117;50.360;3.508;2023-02-28T09:41:22;5.60;;;3.40;;
56201;SDS011;42117;50.360;3.508;2023-02-28T09:43:55;3.17;;;2.78;;
56201;SDS011;42117;50.360;3.508;2023-02-28T09:48:51;5.25;;;2.97;;
56201;SDS011;42117;50.360;3.508;2023-02-28T09:51:28;3.80;;;2.73;;
56201;SDS011;42117;50.360;3.508;2023-02-28T09:53:55;3.88;;;2.90;;
56201;SDS011;42117;50.360;3.508;2023-02-28T09:56:24;3.05;;;2.80;;
56201;SDS011;42117;50.360;3.508;2023-02-28T10:06:49;4.55;;;3.08;;
56201;SDS011;42117;50.360;3.508;2023-02-28T10:09:19;4.55;;;3.28;;
56201;SDS011;42117;50.360;3.508;2023-02-28T10:11:48;3.75;;;2.63;;
56201;SDS011;42117;50.360;3.508;2023-02-28T10:14:18;6.05;;;3.25;;
56201;SDS011;42117;50.360;3.508;2023-02-28T10:26:47;4.43;;;2.55;;
56201;SDS011;42117;50.360;3.508;2023-02-28T10:29:14;2.80;;;2.60;;
56201;SDS011;42117;50.360;3.508;2023-02-28T10:31:40;5.32;;;3.25;;
56201;SDS011;42117;50.360;3.508;2023-02-28T10:34:07;5.53;;;3.15;;
56201;SDS011;42117;50.360;3.508;2023-02-28T10:36:33;3.45;;;2.92;;
56201;SDS011;42117;50.360;3.508;2023-02-28T10:38:59;5.13;;;3.28;;
56201;SDS011;42117;50.360;3.508;2023-02-28T10:41:31;8.02;;;3.22;;
56201;SDS011;42117;50.360;3.508;2023-02-28T10:44:14;4.57;;;2.78;;
56201;SDS011;42117;50.360;3.508;2023-02-28T10:46:41;9.48;;;3.10;;
56201;SDS011;42117;50.360;3.508;2023-02-28T10:49:17;2.60;;;2.40;;
56201;SDS011;42117;50.360;3.508;2023-02-28T10:51:45;2.53;;;2.28;;
56201;SDS011;42117;50.360;3.508;2023-02-28T10:54:18;4.82;;;2.20;;
56201;SDS011;42117;50.360;3.508;2023-02-28T10:56:45;5.40;;;2.30;;
56201;SDS011;42117;50.360;3.508;2023-02-28T11:06:44;2.53;;;2.30;;
56201;SDS011;42117;50.360;3.508;2023-02-28T11:11:43;4.20;;;2.08;;
56201;SDS011;42117;50.360;3.508;2023-02-28T11:14:30;3.75;;;2.75;;
56201;SDS011;42117;50.360;3.508;2023-02-28T11:17:11;4.28;;;2.42;;
56201;SDS011;42117;50.360;3.508;2023-02-28T11:19:40;3.65;;;2.00;;
56201;SDS011;42117;50.360;3.508;2023-02-28T11:22:07;2.13;;;1.92;;
56201;SDS011;42117;50.360;3.508;2023-02-28T11:24:35;4.22;;;2.03;;
56201;SDS011;42117;50.360;3.508;2023-02-28T11:27:02;5.22;;;2.13;;
56201;SDS011;42117;50.360;3.508;2023-02-28T11:29:32;4.38;;;1.80;;
56201;SDS011;42117;50.360;3.508;2023-02-28T11:32:05;2.30;;;2.10;;
56201;SDS011;42117;50.360;3.508;2023-02-28T11:34:32;4.45;;;2.25;;
56201;SDS011;42117;50.360;3.508;2023-02-28T11:36:59;2.63;;;2.13;;
56201;SDS011;42117;50.360;3.508;2023-02-28T11:39:25;2.30;;;1.83;;
56201;SDS011;42117;50.360;3.508;2023-02-28T11:44:47;2.15;;;1.95;;
56201;SDS011;42117;50.360;3.508;2023-02-28T11:47:33;2.38;;;2.17;;
56201;SDS011;42117;50.360;3.508;2023-02-28T11:50:16;3.47;;;2.22;;
56201;SDS011;42117;50.360;3.508;2023-02-28T11:52:59;2.97;;;2.55;;
56201;SDS011;42117;50.360;3.508;2023-02-28T12:00:34;2.03;;;1.90;;
56201;SDS011;42117;50.360;3.508;2023-02-28T12:03:10;2.90;;;2.10;;
56201;SDS011;42117;50.360;3.508;2023-02-28T12:05:45;4.22;;;2.25;;
56201;SDS011;42117;50.360;3.508;2023-02-28T12:10:48;6.40;;;2.35;;
56201;SDS011;42117;50.360;3.508;2023-02-28T12:13:21;5.03;;;2.33;;
56201;SDS011;42117;50.360;3.508;2023-02-28T12:26:29;2.30;;;2.10;;
56201;SDS011;42117;50.360;3.508;2023-02-28T12:28:58;2.42;;;1.88;;
56201;SDS011;42117;50.360;3.508;2023-02-28T12:31:29;3.10;;;2.00;;
56201;SDS011;42117;50.360;3.508;2023-02-28T12:33:59;4.00;;;2.03;;
56201;SDS011;42117;50.360;3.508;2023-02-28T12:36:27;3.63;;;2.10;;
56201;SDS011;42117;50.360;3.508;2023-02-28T12:41:42;2.08;;;1.90;;
56201;SDS011;42117;50.360;3.508;2023-02-28T12:44:11;4.35;;;2.05;;
56201;SDS011;42117;50.360;3.508;2023-02-28T12:46:41;2.47;;;2.20;;
56201;SDS011;42117;50.360;3.508;2023-02-28T12:49:22;4.60;;;2.30;;
56201;SDS011;42117;50.360;3.508;2023-02-28T12:51:50;2.55;;;1.80;;
56201;SDS011;42117;50.360;3.508;2023-02-28T12:54:19;3.50;;;1.93;;
56201;SDS011;42117;50.360;3.508;2023-02-28T12:56:52;3.95;;;2.28;;
56201;SDS011;42117;50.360;3.508;2023-02-28T13:04:57;1.60;;;1.50;;
56201;SDS011;42117;50.360;3.508;2023-02-28T13:10:03;2.17;;;2.00;;
56201;SDS011;42117;50.360;3.508;2023-02-28T13:12:31;2.30;;;2.10;;
56201;SDS011;42117;50.360;3.508;2023-02-28T13:17:29;4.78;;;2.05;;
56201;SDS011;42117;50.360;3.508;2023-02-28T13:19:56;3.37;;;2.00;;
56201;SDS011;42117;50.360;3.508;2023-02-28T13:24:51;2.53;;;2.17;;
56201;SDS011;42117;50.360;3.508;2023-02-28T13:29:48;3.70;;;2.60;;
56201;SDS011;42117;50.360;3.508;2023-02-28T13:32:18;3.67;;;2.70;;
56201;SDS011;42117;50.360;3.508;2023-02-28T13:39:51;2.17;;;2.07;;
56201;SDS011;42117;50.360;3.508;2023-02-28T13:47:31;4.45;;;2.35;;
56201;SDS011;42117;50.360;3.508;2023-02-28T13:50:33;2.40;;;2.20;;
56201;SDS011;42117;50.360;3.508;2023-02-28T14:00:48;4.05;;;2.40;;
56201;SDS011;42117;50.360;3.508;2023-02-28T14:08:35;2.00;;;1.90;;
56201;SDS011;42117;50.360;3.508;2023-02-28T14:11:03;2.20;;;2.10;;
56201;SDS011;42117;50.360;3.508;2023-02-28T14:13:38;3.08;;;2.30;;
56201;SDS011;42117;50.360;3.508;2023-02-28T14:16:09;2.92;;;1.90;;
56201;SDS011;42117;50.360;3.508;2023-02-28T14:18:37;3.35;;;2.42;;
56201;SDS011;42117;50.360;3.508;2023-02-28T14:23:36;7.60;;;2.05;;
56201;SDS011;42117;50.360;3.508;2023-02-28T14:28:43;2.73;;;1.80;;
56201;SDS011;42117;50.360;3.508;2023-02-28T14:31:15;2.22;;;2.00;;
56201;SDS011;42117;50.360;3.508;2023-02-28T14:33:57;4.63;;;2.17;;
56201;SDS011;42117;50.360;3.508;2023-02-28T14:36:26;2.33;;;2.13;;
56201;SDS011;42117;50.360;3.508;2023-02-28T14:38:54;5.53;;;2.30;;
56201;SDS011;42117;50.360;3.508;2023-02-28T14:41:34;3.93;;;2.20;;
56201;SDS011;42117;50.360;3.508;2023-02-28T14:44:03;1.80;;;1.70;;
56201;SDS011;42117;50.360;3.508;2023-02-28T14:46:38;2.22;;;2.00;;
56201;SDS011;42117;50.360;3.508;2023-02-28T14:49:05;2.22;;;2.00;;
56201;SDS011;42117;50.360;3.508;2023-02-28T14:51:35;2.20;;;2.10;;
56201;SDS011;42117;50.360;3.508;2023-02-28T14:54:01;2.33;;;2.10;;
56201;SDS011;42117;50.360;3.508;2023-02-28T14:56:32;5.88;;;2.33;;
56201;SDS011;42117;50.360;3.508;2023-02-28T14:58:58;2.78;;;2.05;;
56201;SDS011;42117;50.360;3.508;2023-02-28T15:01:25;2.17;;;2.08;;
56201;SDS011;42117;50.360;3.508;2023-02-28T15:04:02;3.13;;;2.30;;
56201;SDS011;42117;50.360;3.508;2023-02-28T15:06:28;5.05;;;2.20;;
56201;SDS011;42117;50.360;3.508;2023-02-28T15:11:54;3.22;;;2.40;;
56201;SDS011;42117;50.360;3.508;2023-02-28T15:14:21;3.30;;;2.53;;
56201;SDS011;42117;50.360;3.508;2023-02-28T15:17:01;2.10;;;1.90;;
56201;SDS011;42117;50.360;3.508;2023-02-28T15:19:32;2.15;;;2.00;;
56201;SDS011;42117;50.360;3.508;2023-02-28T15:22:01;6.47;;;2.50;;
56201;SDS011;42117;50.360;3.508;2023-02-28T15:24:39;2.40;;;2.10;;
56201;SDS011;42117;50.360;3.508;2023-02-28T15:27:07;2.47;;;2.27;;
56201;SDS011;42117;50.360;3.508;2023-02-28T15:29:37;3.25;;;2.42;;
56201;SDS011;42117;50.360;3.508;2023-02-28T15:32:07;2.95;;;2.05;;
56201;SDS011;42117;50.360;3.508;2023-02-28T15:34:43;4.20;;;2.80;;
56201;SDS011;42117;50.360;3.508;2023-02-28T15:39:56;6.67;;;2.27;;
56201;SDS011;42117;50.360;3.508;2023-02-28T15:42:26;4.00;;;2.15;;
56201;SDS011;42117;50.360;3.508;2023-02-28T15:44:53;2.63;;;2.42;;
56201;SDS011;42117;50.360;3.508;2023-02-28T15:47:20;3.97;;;2.30;;
56201;SDS011;42117;50.360;3.508;2023-02-28T15:50:20;3.97;;;2.25;;
56201;SDS011;42117;50.360;3.508;2023-02-28T15:52:41;2.58;;;2.38;;
56201;SDS011;42117;50.360;3.508;2023-02-28T15:55:12;3.03;;;2.30;;
56201;SDS011;42117;50.360;3.508;2023-02-28T15:57:42;2.90;;;2.28;;
56201;SDS011;42117;50.360;3.508;2023-02-28T16:00:11;4.28;;;2.55;;
56201;SDS011;42117;50.360;3.508;2023-02-28T16:02:38;4.45;;;2.50;;
56201;SDS011;42117;50.360;3.508;2023-02-28T16:07:38;2.95;;;2.65;;
56201;SDS011;42117;50.360;3.508;2023-02-28T16:10:04;4.47;;;2.60;;
56201;SDS011;42117;50.360;3.508;2023-02-28T16:12:31;4.15;;;3.45;;
56201;SDS011;42117;50.360;3.508;2023-02-28T16:14:59;3.38;;;2.95;;
56201;SDS011;42117;50.360;3.508;2023-02-28T16:17:28;5.33;;;3.60;;
56201;SDS011;42117;50.360;3.508;2023-02-28T16:19:55;4.63;;;3.55;;
56201;SDS011;42117;50.360;3.508;2023-02-28T16:22:21;3.40;;;2.72;;
56201;SDS011;42117;50.360;3.508;2023-02-28T16:24:47;4.25;;;2.97;;
56201;SDS011;42117;50.360;3.508;2023-02-28T16:27:18;5.63;;;2.65;;
56201;SDS011;42117;50.360;3.508;2023-02-28T16:29:45;3.50;;;2.90;;
56201;SDS011;42117;50.360;3.508;2023-02-28T16:32:12;6.50;;;3.28;;
56201;SDS011;42117;50.360;3.508;2023-02-28T16:34:39;2.80;;;2.60;;
56201;SDS011;42117;50.360;3.508;2023-02-28T16:37:15;4.32;;;2.60;;
56201;SDS011;42117;50.360;3.508;2023-02-28T16:39:41;5.50;;;2.70;;
56201;SDS011;42117;50.360;3.508;2023-02-28T16:42:14;4.03;;;2.90;;
56201;SDS011;42117;50.360;3.508;2023-02-28T16:44:41;6.30;;;2.78;;
56201;SDS011;42117;50.360;3.508;2023-02-28T16:47:08;3.25;;;2.92;;
56201;SDS011;42117;50.360;3.508;2023-02-28T16:49:34;2.92;;;2.50;;
56201;SDS011;42117;50.360;3.508;2023-02-28T16:52:00;4.03;;;3.17;;
56201;SDS011;42117;50.360;3.508;2023-02-28T16:54:26;5.93;;;2.95;;
56201;SDS011;42117;50.360;3.508;2023-02-28T16:56:52;5.32;;;2.90;;
56201;SDS011;42117;50.360;3.508;2023-02-28T16:59:21;3.42;;;2.72;;
56201;SDS011;42117;50.360;3.508;2023-02-28T17:01:47;5.55;;;3.50;;